METAR AND TAF INFORMATION

METAR FOR LXGB
ADDS - METARS form results

(1609 UTC 21 November 2019)
Data provider http://aviationweather.gov/metar/data/
 
METAR text: LXGB 211550Z 22013KT 7000 RA FEW008 SCT012 BKN060 16/14 Q1009 TEMPO FEW012
Conditions at: LXGB (GIBRALTAR (CIV/M, GI) observed 1550 UTC 21 November 2019
Temperature: 16.0°C (61°F)
Dewpoint: 14.0°C (57°F) [RH = 88%]
Pressure (altimeter): 29.79 inches Hg (1009.0 mb)
Winds: from the SW (220 degrees) at 15 MPH (13 knots; 6.7 m/s)
Visibility: 4 miles ( 7 km)
Ceiling: 6000 feet AGL
Clouds: few clouds at 800 feet AGL
scattered clouds at 1200 feet AGL
broken clouds at 6000 feet AGL
Weather: RA  (moderate rain)

METAR text: LXGB 211524Z 22010G20KT 7000 RA FEW008 BKN020 BKN060 16/14 Q1009 TEMPO 9999 -RA FEW020
Conditions at: LXGB (GIBRALTAR (CIV/M, GI) observed 1524 UTC 21 November 2019
Temperature: 16.0°C (61°F)
Dewpoint: 14.0°C (57°F) [RH = 88%]
Pressure (altimeter): 29.79 inches Hg (1009.0 mb)
Winds: from the SW (220 degrees) at 12 MPH (10 knots; 5.1 m/s)
gusting to 23 MPH (20 knots; 10.3 m/s)
Visibility: 4 miles ( 7 km)
Ceiling: 2000 feet AGL
Clouds: few clouds at 800 feet AGL
broken clouds at 2000 feet AGL
broken clouds at 6000 feet AGL
Weather: RA  (moderate rain)

Forecast for: AMD
Text: TAF AMD LXGB 211434Z 2115/2123 22008KT 9999 FEW012
Forecast period: 1500 to 2300 UTC 21 November 2019
Forecast type: FROM: standard forecast or significant change
Winds: from the SW (220 degrees) at 9 MPH (8 knots; 4.1 m/s)
Visibility: 6 or more miles 10+ km)
Ceiling: at least 12,000 feet AGL
Clouds: few clouds at 1200 feet AGL
Weather: no significant weather forecast for this period
Text: TEMPO 2115/2123 7000 RA SCT010 BKN020
Forecast period: 1500 to 2300 UTC 21 November 2019
Forecast type: TEMPORARY: The following changes expected for less than half the time period
Visibility: 4 miles (7 km)
Ceiling: 2000 feet AGL
Clouds: scattered clouds at 1000 feet AGL
broken clouds at 2000 feet AGL
Weather: RA  (moderate rain)
Text: PROB30 TEMP0 2115/2118 4000 +RA
Forecast period: 1500 to 2300 UTC 21 November 2019
Forecast type: PROBABLE: 30 percent likelihood of the following during this time
Visibility: 1.32 miles (2.12 km)
Ceiling: unknown
Clouds: missing
Weather: +RA  (heavy rain)

 AIRPORT MAP

 RUNWAY INFORMATION

Runway 09 Runway length 6000 ft Runway width 150 ft
Runway elevation 10 ft Runway displaced threshold 302 ft Runway heading 88
Runway 27 Runway length 6000 ft Runway width 150 ft
Runway elevation 11 ft Runway displaced threshold 368 ft Runway heading 268

 AIRPORT FREQUENCIES

Type A/D Name APP Frequency 122.8 MHZ
Type OPS Name GIB TALKDO Frequency 130.4 MHZ
Type TWR Name TWR Frequency 131.2 MHZ

 AIRPORT NEAR NAVIGATION AIDS

Type TACAN Name Gibraltar Frequency 113600 KHZ